createdAt,value
2023-05-02T00:01:29.047Z,98763.00
2023-05-02T00:03:58.580Z,98758.00
2023-05-02T00:06:28.486Z,98765.00
2023-05-02T00:08:57.969Z,98773.00
2023-05-02T00:11:27.466Z,98776.00
2023-05-02T00:13:57.107Z,98771.00
2023-05-02T00:16:26.335Z,98780.00
2023-05-02T00:18:55.567Z,98778.00
2023-05-02T00:21:24.909Z,98779.00
2023-05-02T00:23:59.284Z,98783.00
2023-05-02T00:26:29.900Z,98783.00
2023-05-02T00:29:00.266Z,98797.00
2023-05-02T00:31:29.577Z,98798.00
2023-05-02T00:33:58.789Z,98800.00
2023-05-02T00:36:28.479Z,98794.00
2023-05-02T00:38:57.687Z,98796.00
2023-05-02T00:41:27.122Z,98799.00
2023-05-02T00:43:56.342Z,98795.00
2023-05-02T00:46:25.825Z,98794.00
2023-05-02T00:48:55.139Z,98798.00
2023-05-02T00:51:24.404Z,98800.00
2023-05-02T00:53:54.510Z,98802.00
2023-05-02T00:56:23.732Z,98803.00
2023-05-02T00:58:53.241Z,98808.00
2023-05-02T01:02:12.960Z,98812.00
2023-05-02T01:05:18.426Z,98808.00
2023-05-02T01:08:29.688Z,98820.00
2023-05-02T01:11:19.236Z,98827.00
2023-05-02T01:13:53.753Z,98836.00
2023-05-02T01:16:26.821Z,98826.00
2023-05-02T01:18:59.291Z,98840.00
2023-05-02T01:21:29.121Z,98847.00
2023-05-02T01:24:25.477Z,98855.00
2023-05-02T01:27:21.069Z,98854.00
2023-05-02T01:29:54.494Z,98859.00
2023-05-02T01:32:27.750Z,98852.00
2023-05-02T01:34:59.890Z,98853.00
2023-05-02T01:37:31.804Z,98852.00
2023-05-02T01:40:14.927Z,98859.00
2023-05-02T01:42:49.386Z,98860.00
2023-05-02T01:45:20.792Z,98860.00
2023-05-02T01:47:55.245Z,98860.00
2023-05-02T01:50:30.724Z,98864.00
2023-05-02T01:53:02.880Z,98868.00
2023-05-02T01:55:36.606Z,98860.00
2023-05-02T01:58:11.929Z,98866.00
2023-05-02T02:00:46.813Z,98863.00
2023-05-02T02:03:24.121Z,98869.00
2023-05-02T02:05:56.653Z,98875.00
2023-05-02T02:08:29.549Z,98878.00
2023-05-02T02:11:13.867Z,98884.00
2023-05-02T02:14:02.815Z,98882.00
2023-05-02T02:16:38.680Z,98884.00
2023-05-02T02:19:14.456Z,98895.00
2023-05-02T02:21:49.510Z,98895.00
2023-05-02T02:24:23.867Z,98900.00
2023-05-02T02:26:53.742Z,98889.00
2023-05-02T02:29:23.071Z,98900.00
2023-05-02T02:31:52.214Z,98903.00
2023-05-02T02:34:23.164Z,98894.00
2023-05-02T02:37:12.807Z,98898.00
2023-05-02T02:40:35.189Z,98895.00
2023-05-02T02:43:22.165Z,98894.00
2023-05-02T02:46:10.452Z,98899.00
2023-05-02T02:49:22.460Z,98899.00
2023-05-02T02:52:34.895Z,98891.00
2023-05-02T02:55:48.681Z,98887.00
2023-05-02T02:58:59.721Z,98896.00
2023-05-02T03:01:33.719Z,98887.00
2023-05-02T03:04:06.510Z,98886.00
2023-05-02T03:06:35.957Z,98889.00
2023-05-02T03:09:05.285Z,98887.00
2023-05-02T03:11:34.498Z,98891.00
2023-05-02T03:14:03.788Z,98887.00
2023-05-02T03:16:41.151Z,98880.00
2023-05-02T03:19:11.017Z,98870.00
2023-05-02T03:21:40.375Z,98868.00
2023-05-02T03:24:09.883Z,98866.00
2023-05-02T03:26:39.372Z,98866.00
2023-05-02T03:29:09.137Z,98861.00
2023-05-02T03:31:38.471Z,98862.00
2023-05-02T03:34:08.074Z,98865.00
2023-05-02T03:36:37.384Z,98861.00
2023-05-02T03:39:07.850Z,98858.00
2023-05-02T03:41:37.649Z,98852.00
2023-05-02T03:44:07.473Z,98859.00
2023-05-02T03:46:37.357Z,98855.00
2023-05-02T03:49:06.787Z,98851.00
2023-05-02T03:51:36.666Z,98854.00
2023-05-02T03:54:06.197Z,98853.00
2023-05-02T03:56:35.575Z,98848.00
2023-05-02T03:59:05.074Z,98845.00
2023-05-02T04:01:34.509Z,98844.00
2023-05-02T04:04:04.028Z,98846.00
2023-05-02T04:06:33.541Z,98844.00
2023-05-02T04:09:02.946Z,98845.00
2023-05-02T04:11:32.382Z,98843.00
2023-05-02T04:14:01.780Z,98844.00
2023-05-02T04:16:31.394Z,98839.00
2023-05-02T04:19:01.431Z,98845.00
2023-05-02T04:21:30.920Z,98843.00
2023-05-02T04:24:00.711Z,98842.00
2023-05-02T04:26:30.027Z,98840.00
2023-05-02T04:28:59.911Z,98833.00
2023-05-02T04:31:30.414Z,98827.00
2023-05-02T04:34:00.087Z,98823.00
2023-05-02T04:36:30.025Z,98815.00
2023-05-02T04:38:59.776Z,98815.00
2023-05-02T04:41:29.616Z,98821.00
2023-05-02T04:43:59.612Z,98813.00
2023-05-02T04:46:29.290Z,98811.00
2023-05-02T04:48:58.778Z,98811.00
2023-05-02T04:51:30.064Z,98796.00
2023-05-02T04:53:59.421Z,98798.00
2023-05-02T04:56:28.820Z,98802.00
2023-05-02T04:58:58.300Z,98792.00
2023-05-02T05:01:35.400Z,98798.00
2023-05-02T05:04:05.201Z,98786.00
2023-05-02T05:06:35.003Z,98795.00
2023-05-02T05:09:04.686Z,98791.00
2023-05-02T05:11:34.093Z,98777.00
2023-05-02T05:14:05.585Z,98765.00
2023-05-02T05:16:35.841Z,98761.00
2023-05-02T05:19:06.400Z,98761.00
2023-05-02T05:21:36.080Z,98751.00
2023-05-02T05:24:05.951Z,98746.00
2023-05-02T05:26:35.429Z,98734.00
2023-05-02T05:29:04.944Z,98736.00
2023-05-02T05:31:34.459Z,98734.00
2023-05-02T05:34:05.531Z,98726.00
2023-05-02T05:36:35.078Z,98719.00
2023-05-02T05:39:04.704Z,98716.00
2023-05-02T05:41:35.284Z,98711.00
2023-05-02T05:44:04.875Z,98713.00
2023-05-02T05:46:34.483Z,98705.00
2023-05-02T05:49:04.120Z,98699.00
2023-05-02T05:51:33.458Z,98700.00
2023-05-02T05:54:04.377Z,98701.00
2023-05-02T05:56:34.969Z,98697.00
2023-05-02T05:59:04.339Z,98690.00
2023-05-02T06:01:35.160Z,98687.00
2023-05-02T06:04:06.047Z,98688.00
2023-05-02T06:06:35.760Z,98676.00
2023-05-02T06:09:05.418Z,98670.00
2023-05-02T06:11:34.876Z,98662.00
2023-05-02T06:14:04.859Z,98656.00
2023-05-02T06:19:19.571Z,98647.00
2023-05-02T06:24:34.766Z,98636.00
2023-05-02T06:27:04.139Z,98623.00
2023-05-02T06:29:33.369Z,98626.00
2023-05-02T06:32:02.594Z,98615.00
2023-05-02T06:34:35.062Z,98613.00
2023-05-02T06:37:04.544Z,98605.00
2023-05-02T06:39:35.088Z,98594.00
2023-05-02T06:42:04.559Z,98594.00
2023-05-02T06:44:33.758Z,98588.00
2023-05-02T06:47:03.060Z,98575.00
2023-05-02T06:49:32.570Z,98570.00
2023-05-02T06:52:01.900Z,98576.00
2023-05-02T06:54:31.354Z,98568.00
2023-05-02T06:57:01.991Z,98561.00
2023-05-02T06:59:31.242Z,98561.00
2023-05-02T07:02:00.821Z,98557.00
2023-05-02T07:04:30.739Z,98552.00
2023-05-02T07:07:00.062Z,98552.00
2023-05-02T07:09:29.317Z,98550.00
2023-05-02T07:11:58.640Z,98544.00
2023-05-02T07:14:27.871Z,98545.00
2023-05-02T07:16:57.197Z,98539.00
2023-05-02T07:19:26.725Z,98523.00
2023-05-02T07:21:56.057Z,98516.00
2023-05-02T07:24:25.255Z,98515.00
2023-05-02T07:26:54.512Z,98512.00
2023-05-02T07:29:23.803Z,98503.00
2023-05-02T07:31:53.176Z,98500.00
2023-05-02T07:34:29.127Z,98503.00
2023-05-02T07:37:04.520Z,98504.00
2023-05-02T07:39:35.407Z,98501.00
2023-05-02T07:42:04.800Z,98503.00
2023-05-02T07:44:37.107Z,98495.00
2023-05-02T07:47:07.573Z,98493.00
2023-05-02T07:49:37.899Z,98489.00
2023-05-02T07:52:07.386Z,98492.00
2023-05-02T07:54:36.849Z,98479.00
2023-05-02T07:57:09.312Z,98480.00
2023-05-02T07:59:38.624Z,98474.00
2023-05-02T08:02:08.489Z,98476.00
2023-05-02T08:04:37.892Z,98473.00
2023-05-02T08:07:07.652Z,98468.00
2023-05-02T08:09:37.143Z,98467.00
2023-05-02T08:12:07.080Z,98459.00
2023-05-02T08:14:37.465Z,98458.00
2023-05-02T08:17:06.690Z,98448.00
2023-05-02T08:19:36.030Z,98452.00
2023-05-02T08:22:05.453Z,98442.00
2023-05-02T08:24:34.959Z,98437.00
2023-05-02T08:27:07.794Z,98435.00
2023-05-02T08:29:38.634Z,98430.00
2023-05-02T08:32:08.334Z,98431.00
2023-05-02T08:34:39.097Z,98425.00
2023-05-02T08:37:14.248Z,98419.00
2023-05-02T08:39:43.621Z,98428.00
2023-05-02T08:42:13.211Z,98434.00
2023-05-02T08:44:42.618Z,98431.00
2023-05-02T08:47:16.109Z,98430.00
2023-05-02T08:49:47.030Z,98426.00
2023-05-02T08:52:18.900Z,98424.00
2023-05-02T08:54:48.978Z,98430.00
2023-05-02T08:57:18.256Z,98419.00
2023-05-02T08:59:47.468Z,98430.00
2023-05-02T09:02:42.440Z,98424.00
2023-05-02T09:05:17.152Z,98419.00
2023-05-02T09:07:52.422Z,98415.00
2023-05-02T09:13:40.966Z,98417.00
2023-05-02T09:16:19.505Z,98409.00
2023-05-02T09:18:53.405Z,98409.00
2023-05-02T09:21:27.467Z,98404.00
2023-05-02T09:24:04.085Z,98402.00
2023-05-02T09:26:34.527Z,98402.00
2023-05-02T09:29:06.478Z,98402.00
2023-05-02T09:34:23.505Z,98388.00
2023-05-02T09:36:55.069Z,98390.00
2023-05-02T09:39:27.437Z,98383.00
2023-05-02T09:41:57.414Z,98376.00
2023-05-02T09:44:39.316Z,98378.00
2023-05-02T09:47:10.354Z,98378.00
2023-05-02T09:49:50.675Z,98383.00
2023-05-02T09:52:24.917Z,98383.00
2023-05-02T09:54:54.355Z,98379.00
2023-05-02T09:57:24.356Z,98375.00
2023-05-02T10:00:00.551Z,98374.00
2023-05-02T10:02:40.108Z,98377.00
2023-05-02T10:05:14.463Z,98376.00
2023-05-02T10:07:43.944Z,98369.00
2023-05-02T10:10:20.469Z,98374.00
2023-05-02T10:12:54.447Z,98372.00
2023-05-02T10:15:28.387Z,98376.00
2023-05-02T10:18:05.103Z,98385.00
2023-05-02T10:20:41.939Z,98384.00
2023-05-02T10:23:11.979Z,98379.00
2023-05-02T10:25:42.163Z,98383.00
2023-05-02T10:28:14.508Z,98395.00
2023-05-02T10:30:44.800Z,98400.00
2023-05-02T10:33:17.674Z,98405.00
2023-05-02T10:35:48.458Z,98411.00
2023-05-02T10:38:24.739Z,98412.00
2023-05-02T10:41:27.884Z,98407.00
2023-05-02T10:44:00.275Z,98411.00
2023-05-02T10:46:38.720Z,98404.00
2023-05-02T10:49:14.707Z,98404.00
2023-05-02T10:51:45.905Z,98407.00
2023-05-02T10:54:26.229Z,98413.00
2023-05-02T10:57:09.599Z,98406.00
2023-05-02T10:59:44.060Z,98408.00
2023-05-02T11:02:26.237Z,98414.00
2023-05-02T11:05:08.502Z,98423.00
2023-05-02T11:07:39.315Z,98431.00
2023-05-02T11:10:23.182Z,98443.00
2023-05-02T11:13:02.244Z,98443.00
2023-05-02T11:15:35.232Z,98447.00
2023-05-02T11:18:08.805Z,98445.00
2023-05-02T11:20:43.196Z,98447.00
2023-05-02T11:23:27.521Z,98446.00
2023-05-02T11:26:04.346Z,98452.00
2023-05-02T11:28:42.462Z,98457.00
2023-05-02T11:31:32.763Z,98455.00
2023-05-02T11:34:04.519Z,98468.00
2023-05-02T11:36:35.572Z,98456.00
2023-05-02T11:39:06.818Z,98457.00
2023-05-02T11:41:45.609Z,98461.00
2023-05-02T11:44:14.762Z,98460.00
2023-05-02T11:46:44.446Z,98455.00
2023-05-02T11:49:15.104Z,98457.00
2023-05-02T11:51:44.767Z,98458.00
2023-05-02T11:54:23.976Z,98455.00
2023-05-02T11:56:53.215Z,98454.00
2023-05-02T11:59:22.424Z,98467.00
2023-05-02T12:01:56.904Z,98462.00
2023-05-02T12:04:27.654Z,98470.00
2023-05-02T12:07:00.381Z,98481.00
2023-05-02T12:09:29.658Z,98488.00
2023-05-02T12:11:59.720Z,98489.00
2023-05-02T12:14:34.595Z,98493.00
2023-05-02T12:17:06.090Z,98498.00
2023-05-02T12:19:38.108Z,98497.00
2023-05-02T12:22:08.828Z,98503.00
2023-05-02T12:24:38.379Z,98519.00
2023-05-02T12:27:18.122Z,98519.00
2023-05-02T12:29:49.748Z,98520.00
2023-05-02T12:32:34.432Z,98522.00
2023-05-02T12:35:05.335Z,98531.00
2023-05-02T12:37:34.557Z,98530.00
2023-05-02T12:40:04.084Z,98543.00
2023-05-02T12:42:35.514Z,98545.00
2023-05-02T12:45:04.876Z,98550.00
2023-05-02T12:47:47.604Z,98552.00
2023-05-02T12:50:16.989Z,98555.00
2023-05-02T12:53:01.155Z,98563.00
2023-05-02T12:55:30.399Z,98573.00
2023-05-02T12:58:11.344Z,98578.00
2023-05-02T13:00:45.434Z,98580.00
2023-05-02T13:03:15.746Z,98583.00
2023-05-02T13:05:44.906Z,98591.00
2023-05-02T13:08:14.133Z,98591.00
2023-05-02T13:10:44.178Z,98592.00
2023-05-02T13:13:13.687Z,98600.00
2023-05-02T13:15:43.035Z,98604.00
2023-05-02T13:18:12.527Z,98615.00
2023-05-02T13:20:41.846Z,98607.00
2023-05-02T13:23:11.336Z,98616.00
2023-05-02T13:25:40.883Z,98618.00
2023-05-02T13:28:10.216Z,98627.00
2023-05-02T13:30:39.717Z,98633.00
2023-05-02T13:33:09.279Z,98644.00
2023-05-02T13:35:38.874Z,98647.00
2023-05-02T13:38:08.183Z,98646.00
2023-05-02T13:40:37.520Z,98643.00
2023-05-02T13:43:06.911Z,98637.00
2023-05-02T13:45:36.626Z,98642.00
2023-05-02T13:48:06.390Z,98643.00
2023-05-02T13:50:44.229Z,98647.00
2023-05-02T13:53:13.570Z,98648.00
2023-05-02T13:55:42.861Z,98656.00
2023-05-02T13:58:12.263Z,98656.00
2023-05-02T14:00:41.671Z,98661.00
2023-05-02T14:03:19.199Z,98669.00
2023-05-02T14:05:48.713Z,98672.00
2023-05-02T14:08:20.145Z,98668.00
2023-05-02T14:10:49.704Z,98661.00
2023-05-02T14:13:19.677Z,98656.00
2023-05-02T14:15:49.450Z,98656.00
2023-05-02T14:18:18.884Z,98654.00
2023-05-02T14:20:48.289Z,98664.00
2023-05-02T14:23:17.522Z,98667.00
2023-05-02T14:25:46.783Z,98660.00
2023-05-02T14:28:15.978Z,98660.00
2023-05-02T14:30:45.110Z,98662.00
2023-05-02T14:33:14.390Z,98659.00
2023-05-02T14:35:43.903Z,98670.00
2023-05-02T14:38:13.350Z,98663.00
2023-05-02T14:40:42.550Z,98678.00
2023-05-02T14:43:14.166Z,98680.00
2023-05-02T14:45:43.389Z,98685.00
2023-05-02T14:48:14.929Z,98692.00
2023-05-02T14:50:44.683Z,98701.00
2023-05-02T14:53:14.025Z,98705.00
2023-05-02T14:55:44.178Z,98714.00
2023-05-02T14:58:13.630Z,98708.00
2023-05-02T15:00:43.159Z,98714.00
2023-05-02T15:03:12.421Z,98718.00
2023-05-02T15:05:42.841Z,98712.00
2023-05-02T15:08:11.988Z,98715.00
2023-05-02T15:10:41.674Z,98717.00
2023-05-02T15:13:11.118Z,98714.00
2023-05-02T15:15:40.396Z,98717.00
2023-05-02T15:18:09.709Z,98724.00
2023-05-02T15:20:39.097Z,98720.00
2023-05-02T15:23:08.299Z,98713.00
2023-05-02T15:25:37.484Z,98720.00
2023-05-02T15:28:09.053Z,98723.00
2023-05-02T15:30:38.323Z,98726.00
2023-05-02T15:33:07.868Z,98732.00
2023-05-02T15:35:37.357Z,98724.00
2023-05-02T15:38:07.587Z,98725.00
2023-05-02T15:40:36.803Z,98725.00
2023-05-02T15:43:07.067Z,98733.00
2023-05-02T15:45:36.276Z,98728.00
2023-05-02T15:48:05.729Z,98723.00
2023-05-02T15:50:35.086Z,98723.00
2023-05-02T15:53:04.256Z,98718.00
2023-05-02T15:55:36.305Z,98721.00
2023-05-02T15:58:05.822Z,98723.00
2023-05-02T16:00:34.982Z,98718.00
2023-05-02T16:03:05.029Z,98718.00
2023-05-02T16:05:35.710Z,98716.00
2023-05-02T16:08:05.309Z,98719.00
2023-05-02T16:10:37.231Z,98715.00
2023-05-02T16:13:06.398Z,98711.00
2023-05-02T16:15:36.079Z,98710.00
2023-05-02T16:18:05.612Z,98703.00
2023-05-02T16:20:37.968Z,98706.00
2023-05-02T16:23:07.160Z,98706.00
2023-05-02T16:25:36.679Z,98704.00
2023-05-02T16:28:06.706Z,98702.00
2023-05-02T16:30:38.642Z,98709.00
2023-05-02T16:33:08.096Z,98697.00
2023-05-02T16:35:37.260Z,98701.00
2023-05-02T16:38:09.975Z,98704.00
2023-05-02T16:40:39.466Z,98697.00
2023-05-02T16:43:09.777Z,98693.00
2023-05-02T16:45:39.712Z,98690.00
2023-05-02T16:48:09.019Z,98684.00
2023-05-02T16:50:38.175Z,98684.00
2023-05-02T16:53:07.460Z,98672.00
2023-05-02T16:55:36.602Z,98679.00
2023-05-02T16:58:05.930Z,98665.00
2023-05-02T17:00:35.241Z,98659.00
2023-05-02T17:03:05.621Z,98664.00
2023-05-02T17:05:35.403Z,98658.00
2023-05-02T17:08:04.719Z,98666.00
2023-05-02T17:10:34.097Z,98658.00
2023-05-02T17:13:03.790Z,98656.00
2023-05-02T17:15:39.455Z,98645.00
2023-05-02T17:18:09.030Z,98648.00
2023-05-02T17:20:38.736Z,98645.00
2023-05-02T17:23:08.157Z,98649.00
2023-05-02T17:25:51.023Z,98647.00
2023-05-02T17:28:21.156Z,98644.00
2023-05-02T17:30:55.302Z,98638.00
2023-05-02T17:33:26.168Z,98643.00
2023-05-02T17:35:55.486Z,98640.00
2023-05-02T17:38:24.690Z,98635.00
2023-05-02T17:40:54.140Z,98639.00
2023-05-02T17:43:23.488Z,98638.00
2023-05-02T17:45:52.678Z,98642.00
2023-05-02T17:48:22.276Z,98632.00
2023-05-02T17:50:52.004Z,98626.00
2023-05-02T17:53:21.192Z,98637.00
2023-05-02T17:55:51.165Z,98631.00
2023-05-02T17:58:20.792Z,98623.00
2023-05-02T18:00:50.019Z,98623.00
2023-05-02T18:03:19.444Z,98618.00
2023-05-02T18:05:48.896Z,98622.00
2023-05-02T18:08:18.139Z,98614.00
2023-05-02T18:10:47.371Z,98610.00
2023-05-02T18:13:16.665Z,98613.00
2023-05-02T18:15:55.470Z,98608.00
2023-05-02T18:18:24.904Z,98608.00
2023-05-02T18:20:54.241Z,98609.00
2023-05-02T18:23:23.606Z,98606.00
2023-05-02T18:25:52.854Z,98604.00
2023-05-02T18:28:22.241Z,98605.00
2023-05-02T18:30:51.474Z,98602.00
2023-05-02T18:33:20.728Z,98605.00
2023-05-02T18:35:50.902Z,98614.00
2023-05-02T18:38:20.728Z,98611.00
2023-05-02T18:40:51.388Z,98605.00
2023-05-02T18:43:20.643Z,98601.00
2023-05-02T18:45:49.896Z,98600.00
2023-05-02T18:48:19.105Z,98601.00
2023-05-02T18:50:48.447Z,98600.00
2023-05-02T18:53:17.781Z,98599.00
2023-05-02T18:55:48.116Z,98593.00
2023-05-02T18:58:17.283Z,98583.00
2023-05-02T19:00:46.635Z,98583.00
2023-05-02T19:03:16.194Z,98591.00
2023-05-02T19:05:45.778Z,98586.00
2023-05-02T19:08:15.028Z,98591.00
2023-05-02T19:10:44.219Z,98595.00
2023-05-02T19:13:13.852Z,98593.00
2023-05-02T19:15:54.022Z,98592.00
2023-05-02T19:18:24.136Z,98592.00
2023-05-02T19:20:53.581Z,98595.00
2023-05-02T19:23:22.795Z,98597.00
2023-05-02T19:25:52.249Z,98592.00
2023-05-02T19:28:21.498Z,98591.00
2023-05-02T19:30:50.701Z,98593.00
2023-05-02T19:33:20.318Z,98596.00
2023-05-02T19:35:51.295Z,98594.00
2023-05-02T19:38:21.272Z,98600.00
2023-05-02T19:40:50.493Z,98594.00
2023-05-02T19:43:19.641Z,98602.00
2023-05-02T19:45:48.852Z,98598.00
2023-05-02T19:48:18.139Z,98605.00
2023-05-02T19:50:47.406Z,98603.00
2023-05-02T19:53:16.687Z,98597.00
2023-05-02T19:55:46.008Z,98607.00
2023-05-02T19:58:15.242Z,98593.00
2023-05-02T20:00:44.422Z,98596.00
2023-05-02T20:03:13.754Z,98595.00
2023-05-02T20:05:42.952Z,98594.00
2023-05-02T20:08:12.233Z,98599.00
2023-05-02T20:10:41.740Z,98599.00
2023-05-02T20:13:14.828Z,98598.00
2023-05-02T20:15:44.089Z,98605.00
2023-05-02T20:18:13.292Z,98606.00
2023-05-02T20:20:42.661Z,98604.00
2023-05-02T20:23:12.408Z,98607.00
2023-05-02T20:25:42.932Z,98601.00
2023-05-02T20:28:12.596Z,98604.00
2023-05-02T20:30:42.959Z,98605.00
2023-05-02T20:33:16.169Z,98593.00
2023-05-02T20:36:06.508Z,98601.00
2023-05-02T20:38:36.714Z,98598.00
2023-05-02T20:41:08.771Z,98600.00
2023-05-02T20:43:40.667Z,98600.00
2023-05-02T20:46:15.011Z,98599.00
2023-05-02T20:48:44.547Z,98599.00
2023-05-02T20:51:14.100Z,98596.00
2023-05-02T20:53:43.636Z,98596.00
2023-05-02T20:56:12.823Z,98599.00
2023-05-02T20:58:42.161Z,98602.00
2023-05-02T21:01:11.791Z,98599.00
2023-05-02T21:03:42.077Z,98598.00
2023-05-02T21:06:11.494Z,98602.00
2023-05-02T21:08:40.793Z,98599.00
2023-05-02T21:11:17.504Z,98609.00
2023-05-02T21:13:46.857Z,98608.00
2023-05-02T21:16:21.073Z,98611.00
2023-05-02T21:18:50.518Z,98609.00
2023-05-02T21:21:19.691Z,98613.00
2023-05-02T21:23:48.928Z,98618.00
2023-05-02T21:26:21.223Z,98627.00
2023-05-02T21:28:54.474Z,98627.00
2023-05-02T21:31:23.903Z,98629.00
2023-05-02T21:33:53.231Z,98629.00
2023-05-02T21:36:23.545Z,98633.00
2023-05-02T21:38:54.525Z,98633.00
2023-05-02T21:41:23.947Z,98637.00
2023-05-02T21:43:53.533Z,98644.00
2023-05-02T21:46:23.048Z,98647.00
2023-05-02T21:48:52.413Z,98645.00
2023-05-02T21:51:22.248Z,98646.00
2023-05-02T21:53:51.916Z,98652.00
2023-05-02T21:56:21.297Z,98651.00
2023-05-02T21:58:52.261Z,98658.00
2023-05-02T22:01:21.776Z,98654.00
2023-05-02T22:03:51.245Z,98654.00
2023-05-02T22:06:20.647Z,98655.00
2023-05-02T22:08:49.990Z,98656.00
2023-05-02T22:11:19.485Z,98660.00
2023-05-02T22:13:49.489Z,98660.00
2023-05-02T22:16:18.965Z,98656.00
2023-05-02T22:18:50.452Z,98656.00
2023-05-02T22:21:19.892Z,98666.00
2023-05-02T22:23:49.287Z,98666.00
2023-05-02T22:26:18.646Z,98671.00
2023-05-02T22:28:48.106Z,98681.00
2023-05-02T22:31:17.926Z,98675.00
2023-05-02T22:33:50.820Z,98670.00
2023-05-02T22:36:21.538Z,98678.00
2023-05-02T22:38:50.872Z,98678.00
2023-05-02T22:41:20.170Z,98681.00
2023-05-02T22:43:49.602Z,98681.00
2023-05-02T22:46:19.353Z,98695.00
2023-05-02T22:48:50.139Z,98694.00
2023-05-02T22:51:20.022Z,98692.00
2023-05-02T22:53:50.154Z,98701.00
2023-05-02T22:56:19.883Z,98703.00
2023-05-02T22:58:50.851Z,98694.00
2023-05-02T23:01:20.267Z,98707.00
2023-05-02T23:03:50.280Z,98706.00
2023-05-02T23:06:19.962Z,98713.00
2023-05-02T23:08:49.356Z,98715.00
2023-05-02T23:11:18.779Z,98722.00
2023-05-02T23:13:48.072Z,98719.00
2023-05-02T23:16:17.466Z,98732.00
2023-05-02T23:18:48.646Z,98731.00
2023-05-02T23:21:18.791Z,98734.00
2023-05-02T23:23:48.185Z,98727.00
2023-05-02T23:26:17.527Z,98736.00
2023-05-02T23:28:46.878Z,98744.00
2023-05-02T23:31:16.318Z,98742.00
2023-05-02T23:33:46.863Z,98752.00
2023-05-02T23:36:16.520Z,98756.00
2023-05-02T23:38:45.972Z,98763.00
2023-05-02T23:41:15.446Z,98766.00
2023-05-02T23:43:45.293Z,98764.00
2023-05-02T23:46:14.597Z,98772.00
2023-05-02T23:48:43.994Z,98777.00
2023-05-02T23:51:13.361Z,98780.00
2023-05-02T23:53:42.642Z,98783.00
2023-05-02T23:56:12.140Z,98779.00
2023-05-02T23:58:41.619Z,98785.00
